Time;durP1;ratioP1;P1;durP2;ratioP2;P2;SDS_P1;SDS_P2;PMS_P1;PMS_P2;Temp;Humidity;BMP_temperature;BMP_pressure;BME280_temperature;BME280_humidity;BME280_pressure;Samples;Min_cycle;Max_cycle;Signal;HPM_P1;HPM_P2
2022/12/07 00:00:49;;;;;;;9.50;7.20;;;;;;;;;;5031217;28;20686;-78
2022/12/07 00:04:00;;;;;;;9.27;7.00;;;;;;;;;;5019981;28;20169;-79
2022/12/07 00:07:04;;;;;;;8.37;6.87;;;;;;;;;;5019897;28;20513;-78
2022/12/07 00:10:08;;;;;;;11.93;6.80;;;;;;;;;;5030990;28;20208;-78
2022/12/07 00:13:12;;;;;;;9.17;7.00;;;;;;;;;;5020256;28;20213;-79
2022/12/07 00:16:19;;;;;;;8.33;6.67;;;;;;;;;;5030041;28;20636;-78
2022/12/07 00:19:23;;;;;;;8.47;6.63;;;;;;;;;;5019829;28;20173;-78
2022/12/07 00:22:27;;;;;;;10.87;7.60;;;;;;;;;;5030869;28;20212;-78
2022/12/07 00:25:32;;;;;;;9.67;7.27;;;;;;;;;;5019638;28;20185;-78
2022/12/07 00:28:36;;;;;;;10.37;7.73;;;;;;;;;;5018911;28;20177;-78
2022/12/07 00:31:41;;;;;;;8.97;7.07;;;;;;;;;;5018298;28;20212;-78
2022/12/07 00:34:45;;;;;;;9.00;6.57;;;;;;;;;;5018795;28;20184;-78
2022/12/07 00:37:49;;;;;;;9.30;6.93;;;;;;;;;;5007956;28;20181;-78
2022/12/07 00:40:55;;;;;;;8.83;6.97;;;;;;;;;;5029916;28;20682;-78
2022/12/07 00:44:00;;;;;;;9.00;6.83;;;;;;;;;;5029431;28;20181;-78
2022/12/07 00:47:04;;;;;;;9.13;6.70;;;;;;;;;;5018713;28;20180;-78
2022/12/07 00:50:08;;;;;;;10.40;7.57;;;;;;;;;;5018474;28;20228;-78
2022/12/07 00:53:13;;;;;;;10.33;7.17;;;;;;;;;;5019074;28;20200;-78
2022/12/07 00:56:26;;;;;;;14.03;7.47;;;;;;;;;;5029809;28;20176;-78
2022/12/07 00:59:31;;;;;;;8.03;6.27;;;;;;;;;;5029095;28;20177;-78
2022/12/07 01:02:35;;;;;;;10.17;7.50;;;;;;;;;;5017986;28;20212;-78
2022/12/07 01:05:40;;;;;;;12.07;7.27;;;;;;;;;;5029145;28;20173;-78
2022/12/07 01:08:44;;;;;;;9.03;7.07;;;;;;;;;;5007409;28;20177;-78
2022/12/07 01:11:48;;;;;;;10.17;7.23;;;;;;;;;;5028528;28;20228;-78
2022/12/07 01:14:52;;;;;;;9.03;7.10;;;;;;;;;;5017447;28;20176;-78
2022/12/07 01:17:57;;;;;;;10.10;7.40;;;;;;;;;;5018142;28;20181;-78
2022/12/07 01:21:02;;;;;;;8.90;6.60;;;;;;;;;;5028957;28;20213;-78
2022/12/07 01:24:10;;;;;;;8.27;6.63;;;;;;;;;;5018020;28;20193;-78
2022/12/07 01:27:14;;;;;;;8.63;7.00;;;;;;;;;;5005884;28;20200;-78
2022/12/07 01:30:18;;;;;;;10.90;7.33;;;;;;;;;;5028969;28;20209;-78
2022/12/07 01:33:22;;;;;;;9.40;6.90;;;;;;;;;;5028663;28;20185;-78
2022/12/07 01:36:29;;;;;;;8.67;6.97;;;;;;;;;;5016611;28;20177;-78
2022/12/07 01:39:33;;;;;;;11.33;8.13;;;;;;;;;;5028345;28;20173;-78
2022/12/07 01:42:37;;;;;;;9.47;7.10;;;;;;;;;;5005727;28;20224;-78
2022/12/07 01:45:41;;;;;;;8.50;7.07;;;;;;;;;;5028030;28;20185;-78
2022/12/07 01:48:46;;;;;;;9.60;7.60;;;;;;;;;;5016686;28;20177;-78
2022/12/07 01:51:54;;;;;;;9.00;7.07;;;;;;;;;;5028211;28;20209;-78
2022/12/07 01:55:06;;;;;;;10.37;6.77;;;;;;;;;;5016243;28;20193;-78
2022/12/07 01:58:12;;;;;;;10.57;7.13;;;;;;;;;;5039258;28;20181;-78
2022/12/07 02:01:16;;;;;;;9.60;7.50;;;;;;;;;;5027103;28;20216;-78
2022/12/07 02:04:22;;;;;;;8.00;6.23;;;;;;;;;;5026831;28;20196;-78
2022/12/07 02:07:29;;;;;;;9.63;7.20;;;;;;;;;;5005143;28;20231;-78
2022/12/07 02:10:33;;;;;;;9.70;7.50;;;;;;;;;;5015536;28;20611;-78
2022/12/07 02:13:40;;;;;;;9.83;7.63;;;;;;;;;;5062510;23;20694;-78
2022/12/07 02:17:03;;;;;;;9.63;7.13;;;;;;;;;;5042211;28;20188;-76
2022/12/07 02:20:27;;;;;;;10.17;6.80;;;;;;;;;;5078540;28;20171;-78
2022/12/07 02:24:10;;;;;;;9.13;7.30;;;;;;;;;;5058704;28;20180;-77
2022/12/07 02:27:30;;;;;;;10.40;7.87;;;;;;;;;;5030302;28;20177;-76
2022/12/07 02:30:42;;;;;;;8.87;7.47;;;;;;;;;;5046891;28;20219;-78
2022/12/07 02:33:54;;;;;;;9.53;7.30;;;;;;;;;;5036155;28;20180;-78
2022/12/07 02:37:05;;;;;;;12.07;7.83;;;;;;;;;;5046875;28;20543;-77
2022/12/07 02:40:19;;;;;;;10.97;7.60;;;;;;;;;;5045981;28;20542;-78
2022/12/07 02:43:27;;;;;;;12.53;9.13;;;;;;;;;;5058099;28;20523;-78
2022/12/07 02:46:39;;;;;;;10.27;7.90;;;;;;;;;;5046721;28;20196;-78
2022/12/07 02:49:43;;;;;;;10.30;7.77;;;;;;;;;;5047039;28;20639;-78
2022/12/07 02:52:48;;;;;;;10.50;7.70;;;;;;;;;;5047321;28;20526;-78
2022/12/07 02:55:52;;;;;;;11.27;8.50;;;;;;;;;;5058427;28;20184;-79
2022/12/07 02:59:21;;;;;;;11.30;8.30;;;;;;;;;;5035628;28;20180;-77
2022/12/07 03:02:35;;;;;;;11.10;8.27;;;;;;;;;;5035682;28;20674;-77
2022/12/07 03:05:39;;;;;;;11.73;8.77;;;;;;;;;;5046916;28;20184;-78
2022/12/07 03:09:27;;;;;;;12.67;8.10;;;;;;;;;;5046647;28;20200;-76
2022/12/07 03:12:49;;;;;;;11.60;8.37;;;;;;;;;;4969303;28;20215;-77
2022/12/07 03:15:59;;;;;;;11.33;8.23;;;;;;;;;;5034981;28;20180;-77
2022/12/07 03:19:12;;;;;;;13.13;8.47;;;;;;;;;;5045043;28;20180;-76
2022/12/07 03:22:18;;;;;;;11.83;8.43;;;;;;;;;;5044863;28;20551;-78
2022/12/07 03:25:22;;;;;;;12.63;8.83;;;;;;;;;;5056235;28;20184;-80
2022/12/07 03:28:32;;;;;;;10.33;8.07;;;;;;;;;;5057076;28;20879;-79
2022/12/07 03:31:41;;;;;;;10.80;8.47;;;;;;;;;;5034002;28;20235;-78
2022/12/07 03:35:02;;;;;;;13.77;9.07;;;;;;;;;;5044882;28;20196;-79
2022/12/07 03:38:21;;;;;;;14.00;9.30;;;;;;;;;;5045057;28;20176;-80
2022/12/07 03:41:30;;;;;;;13.50;9.33;;;;;;;;;;5056280;28;20212;-79
2022/12/07 03:44:36;;;;;;;14.00;9.60;;;;;;;;;;5044830;28;20180;-79
2022/12/07 03:47:56;;;;;;;13.07;9.37;;;;;;;;;;5045188;28;20180;-79
2022/12/07 03:51:24;;;;;;;13.67;9.23;;;;;;;;;;5046246;28;20228;-79
2022/12/07 03:54:37;;;;;;;14.90;9.97;;;;;;;;;;5049185;28;20539;-78
2022/12/07 03:57:43;;;;;;;14.07;9.83;;;;;;;;;;5061280;28;20180;-79
2022/12/07 04:00:49;;;;;;;14.53;9.87;;;;;;;;;;5062831;28;20630;-79
2022/12/07 04:03:53;;;;;;;11.83;8.73;;;;;;;;;;5050098;28;20630;-79
2022/12/07 04:06:57;;;;;;;13.67;9.83;;;;;;;;;;5049689;28;20634;-80
2022/12/07 04:10:03;;;;;;;13.90;9.53;;;;;;;;;;5049408;28;20188;-80
2022/12/07 04:13:07;;;;;;;13.60;9.37;;;;;;;;;;5053816;28;21092;-79
2022/12/07 04:16:11;;;;;;;13.53;9.43;;;;;;;;;;5046372;28;20196;-79
2022/12/07 04:19:18;;;;;;;12.13;9.50;;;;;;;;;;5052965;28;20180;-79
2022/12/07 04:22:22;;;;;;;12.20;9.30;;;;;;;;;;5052724;28;20208;-80
2022/12/07 04:25:26;;;;;;;17.87;9.17;;;;;;;;;;5040047;28;20534;-80
2022/12/07 04:28:31;;;;;;;12.80;9.20;;;;;;;;;;5051069;28;20196;-80
2022/12/07 04:31:36;;;;;;;12.37;8.93;;;;;;;;;;5038364;28;20231;-80
2022/12/07 04:34:40;;;;;;;13.07;9.77;;;;;;;;;;5061910;28;20196;-79
2022/12/07 04:37:44;;;;;;;13.83;9.70;;;;;;;;;;5037233;28;20204;-79
2022/12/07 04:40:48;;;;;;;13.40;9.13;;;;;;;;;;5029604;28;20216;-79
2022/12/07 04:43:58;;;;;;;12.87;9.13;;;;;;;;;;5042033;28;20188;-79
2022/12/07 04:47:02;;;;;;;12.77;8.93;;;;;;;;;;5049326;28;20606;-79
2022/12/07 04:50:09;;;;;;;15.03;9.60;;;;;;;;;;5059135;28;20539;-79
2022/12/07 04:53:13;;;;;;;14.03;9.80;;;;;;;;;;5047768;28;20180;-79
2022/12/07 04:56:18;;;;;;;15.18;12.73;;;;;;;;;;5035168;28;20720;-79
2022/12/07 04:59:22;;;;;;;18.17;13.75;;;;;;;;;;5045365;28;20680;-78
2022/12/07 05:02:26;;;;;;;16.48;13.43;;;;;;;;;;5045596;28;21069;-79
2022/12/07 05:05:30;;;;;;;13.87;10.77;;;;;;;;;;5045956;28;20200;-79
2022/12/07 05:08:35;;;;;;;13.73;10.53;;;;;;;;;;5045007;28;20195;-78
2022/12/07 05:11:39;;;;;;;14.90;13.20;;;;;;;;;;5044433;28;20751;-78
2022/12/07 05:14:43;;;;;;;14.93;13.25;;;;;;;;;;5044673;28;20736;-78
2022/12/07 05:17:47;;;;;;;14.20;10.87;;;;;;;;;;5057770;28;20184;-78
2022/12/07 05:20:51;;;;;;;13.68;11.88;;;;;;;;;;5022168;28;20736;-78
2022/12/07 05:23:56;;;;;;;12.80;9.53;;;;;;;;;;5046736;28;20196;-78
2022/12/07 05:27:00;;;;;;;14.00;10.23;;;;;;;;;;5045597;28;20176;-78
2022/12/07 05:30:05;;;;;;;12.03;9.20;;;;;;;;;;5056253;28;20184;-78
2022/12/07 05:33:10;;;;;;;13.20;9.73;;;;;;;;;;5043677;28;20172;-78
2022/12/07 05:36:14;;;;;;;13.20;9.67;;;;;;;;;;5032926;28;20180;-78
2022/12/07 05:39:18;;;;;;;16.17;10.70;;;;;;;;;;5057280;28;20180;-78
2022/12/07 05:42:22;;;;;;;13.33;9.70;;;;;;;;;;5054825;28;20548;-78
2022/12/07 05:45:26;;;;;;;14.33;10.50;;;;;;;;;;5043005;28;20227;-78
2022/12/07 05:48:30;;;;;;;16.47;11.03;;;;;;;;;;5026727;28;20200;-78
2022/12/07 05:51:34;;;;;;;16.00;10.90;;;;;;;;;;5034821;28;20647;-78
2022/12/07 05:54:38;;;;;;;14.73;10.93;;;;;;;;;;5036654;28;20543;-78
2022/12/07 05:59:22;;;;;;;14.43;10.83;;;;;;;;;;5024193;28;20181;-79
2022/12/07 06:01:09;;;;;;;13.67;10.27;;;;;;;;;;5035836;28;20642;-79
2022/12/07 06:04:13;;;;;;;15.83;10.87;;;;;;;;;;5042202;28;20749;-78
2022/12/07 06:07:17;;;;;;;17.27;11.17;;;;;;;;;;5016133;28;20901;-79
2022/12/07 06:10:21;;;;;;;13.73;10.53;;;;;;;;;;5004318;28;20592;-79
2022/12/07 06:13:26;;;;;;;14.43;10.13;;;;;;;;;;5019621;28;20616;-79
2022/12/07 06:16:30;;;;;;;16.80;10.53;;;;;;;;;;5022361;28;20549;-79
2022/12/07 06:19:35;;;;;;;14.13;10.03;;;;;;;;;;5010903;28;20537;-79
2022/12/07 06:22:40;;;;;;;13.07;9.40;;;;;;;;;;5022313;28;20629;-79
2022/12/07 06:25:47;;;;;;;14.87;10.43;;;;;;;;;;4988517;28;20541;-79
2022/12/07 06:28:52;;;;;;;31.57;22.07;;;;;;;;;;5010679;28;20549;-79
2022/12/07 06:31:57;;;;;;;21.17;14.43;;;;;;;;;;5024193;28;20655;-79
2022/12/07 06:35:01;;;;;;;17.67;12.37;;;;;;;;;;5005438;28;20549;-78
2022/12/07 06:38:05;;;;;;;19.13;13.57;;;;;;;;;;5025387;28;20607;-79
2022/12/07 06:41:09;;;;;;;17.37;11.53;;;;;;;;;;5045670;28;21178;-79
2022/12/07 06:44:14;;;;;;;18.23;11.63;;;;;;;;;;5034066;28;20544;-79
2022/12/07 06:47:18;;;;;;;15.53;10.43;;;;;;;;;;5057898;28;20540;-79
2022/12/07 06:50:22;;;;;;;14.50;10.27;;;;;;;;;;5058197;28;20555;-79
2022/12/07 06:53:27;;;;;;;19.03;11.67;;;;;;;;;;5047824;28;20540;-79
2022/12/07 06:56:31;;;;;;;16.47;11.20;;;;;;;;;;5047175;28;20607;-79
2022/12/07 06:59:35;;;;;;;13.80;9.73;;;;;;;;;;5047308;28;20907;-79
2022/12/07 07:02:40;;;;;;;16.43;10.53;;;;;;;;;;5048523;28;20619;-80
2022/12/07 07:05:44;;;;;;;17.53;11.37;;;;;;;;;;5025954;28;20607;-80
2022/12/07 07:08:49;;;;;;;16.67;11.00;;;;;;;;;;5047402;28;20603;-79
2022/12/07 07:11:53;;;;;;;15.97;11.33;;;;;;;;;;5022753;28;20999;-79
2022/12/07 07:14:58;;;;;;;15.77;11.67;;;;;;;;;;5056571;28;20615;-79
2022/12/07 07:18:03;;;;;;;18.77;11.83;;;;;;;;;;5035903;28;20536;-80
2022/12/07 07:21:07;;;;;;;19.57;12.30;;;;;;;;;;5047350;28;20623;-80
2022/12/07 07:24:12;;;;;;;21.37;11.93;;;;;;;;;;5047590;28;20552;-80
2022/12/07 07:27:16;;;;;;;16.77;11.80;;;;;;;;;;5061531;28;20535;-79
2022/12/07 07:30:21;;;;;;;15.83;11.00;;;;;;;;;;5040414;28;20601;-79
2022/12/07 07:33:25;;;;;;;18.03;11.30;;;;;;;;;;5051891;28;20537;-79
2022/12/07 07:36:29;;;;;;;17.50;11.53;;;;;;;;;;5051952;28;20548;-79
2022/12/07 07:39:34;;;;;;;15.87;10.37;;;;;;;;;;5051077;28;20556;-79
2022/12/07 07:42:38;;;;;;;18.30;10.83;;;;;;;;;;5051257;28;20619;-79
2022/12/07 07:45:42;;;;;;;17.27;11.33;;;;;;;;;;5062703;28;20563;-79
2022/12/07 07:48:46;;;;;;;18.47;10.13;;;;;;;;;;5051290;28;20544;-79
2022/12/07 07:51:51;;;;;;;14.43;10.83;;;;;;;;;;5062539;28;20647;-80
2022/12/07 07:54:55;;;;;;;13.90;10.43;;;;;;;;;;5062106;28;20595;-79
2022/12/07 07:57:59;;;;;;;14.13;9.93;;;;;;;;;;5049430;28;20548;-79
2022/12/07 08:01:06;;;;;;;15.10;10.50;;;;;;;;;;5035968;28;20623;-79
2022/12/07 08:04:10;;;;;;;15.33;10.13;;;;;;;;;;5046122;28;20599;-79
2022/12/07 08:07:15;;;;;;;17.70;10.93;;;;;;;;;;5037832;28;20544;-79
2022/12/07 08:10:19;;;;;;;16.70;11.07;;;;;;;;;;5058709;28;20607;-79
2022/12/07 08:13:23;;;;;;;15.37;10.60;;;;;;;;;;5058492;28;20671;-78
2022/12/07 08:16:27;;;;;;;15.27;10.57;;;;;;;;;;5048029;28;20551;-78
2022/12/07 08:19:33;;;;;;;13.67;9.83;;;;;;;;;;5036732;28;20553;-78
2022/12/07 08:22:36;;;;;;;13.10;9.80;;;;;;;;;;5035617;28;20626;-77
2022/12/07 08:25:41;;;;;;;14.80;9.77;;;;;;;;;;5046433;28;20540;-77
2022/12/07 08:28:45;;;;;;;12.47;9.07;;;;;;;;;;5035795;28;20548;-78
2022/12/07 08:31:48;;;;;;;13.40;9.60;;;;;;;;;;5046805;28;20651;-77
2022/12/07 08:34:53;;;;;;;12.80;9.30;;;;;;;;;;5035482;28;20607;-77
2022/12/07 08:37:57;;;;;;;13.73;9.90;;;;;;;;;;5036729;28;20193;-78
2022/12/07 08:41:02;;;;;;;13.60;9.90;;;;;;;;;;5038699;28;20212;-78
2022/12/07 08:44:06;;;;;;;15.30;10.10;;;;;;;;;;5038468;28;20197;-78
2022/12/07 08:47:10;;;;;;;16.97;11.40;;;;;;;;;;5049811;28;20181;-78
2022/12/07 08:50:14;;;;;;;15.67;11.00;;;;;;;;;;5038901;28;20181;-78
2022/12/07 08:53:18;;;;;;;13.77;10.10;;;;;;;;;;5026855;28;20213;-78
2022/12/07 08:56:22;;;;;;;13.73;10.03;;;;;;;;;;5038383;28;20177;-78
2022/12/07 08:59:28;;;;;;;13.50;9.37;;;;;;;;;;5025700;28;20180;-78
2022/12/07 09:02:32;;;;;;;14.50;9.90;;;;;;;;;;5038139;28;20209;-78
2022/12/07 09:05:36;;;;;;;13.67;10.00;;;;;;;;;;5036967;28;20185;-78
2022/12/07 09:08:46;;;;;;;15.03;10.53;;;;;;;;;;5024407;28;20521;-77
2022/12/07 09:11:50;;;;;;;16.30;10.40;;;;;;;;;;5022367;28;20224;-77
2022/12/07 09:14:54;;;;;;;15.40;10.13;;;;;;;;;;5033839;28;20200;-78
2022/12/07 09:17:58;;;;;;;14.17;10.17;;;;;;;;;;5035137;28;20176;-78
2022/12/07 09:21:03;;;;;;;18.20;11.27;;;;;;;;;;5034247;28;20216;-77
2022/12/07 09:24:07;;;;;;;14.13;9.70;;;;;;;;;;5034815;28;20181;-77
2022/12/07 09:27:11;;;;;;;15.43;9.93;;;;;;;;;;5045309;28;20177;-77
2022/12/07 09:30:15;;;;;;;15.90;9.77;;;;;;;;;;5034660;28;20632;-77
2022/12/07 09:33:20;;;;;;;13.43;9.23;;;;;;;;;;5034055;28;20204;-77
2022/12/07 09:36:25;;;;;;;15.03;10.60;;;;;;;;;;5045388;28;20185;-78
2022/12/07 09:39:29;;;;;;;15.67;9.47;;;;;;;;;;5045309;28;20181;-77
2022/12/07 09:42:36;;;;;;;13.60;8.90;;;;;;;;;;5034818;28;20682;-77
2022/12/07 09:45:41;;;;;;;14.47;10.00;;;;;;;;;;5033983;28;20197;-76
2022/12/07 09:48:46;;;;;;;15.60;10.57;;;;;;;;;;5033472;28;20177;-79
2022/12/07 09:52:17;;;;;;;14.10;9.40;;;;;;;;;;5034574;28;20208;-77
2022/12/07 09:55:26;;;;;;;14.10;9.37;;;;;;;;;;5047224;28;20185;-77
2022/12/07 09:58:33;;;;;;;13.07;9.37;;;;;;;;;;5046260;28;20514;-77
2022/12/07 10:01:39;;;;;;;11.47;8.73;;;;;;;;;;5044601;28;20221;-77
2022/12/07 10:04:44;;;;;;;13.30;8.87;;;;;;;;;;5044934;28;20173;-77
2022/12/07 10:07:49;;;;;;;12.73;8.47;;;;;;;;;;5034418;28;20516;-77
2022/12/07 10:10:56;;;;;;;13.70;9.17;;;;;;;;;;5046749;28;20216;-77
2022/12/07 10:14:12;;;;;;;13.43;9.57;;;;;;;;;;5033573;28;20224;-77
2022/12/07 10:17:31;;;;;;;10.70;7.80;;;;;;;;;;5033359;28;20189;-77
2022/12/07 10:20:35;;;;;;;9.60;7.50;;;;;;;;;;5044841;28;20185;-77
2022/12/07 10:24:17;;;;;;;10.33;7.70;;;;;;;;;;5044612;28;20188;-77
2022/12/07 10:27:30;;;;;;;12.03;8.37;;;;;;;;;;5034478;28;20181;-77
2022/12/07 10:30:58;;;;;;;8.87;6.57;;;;;;;;;;5045887;28;20185;-77
2022/12/07 10:34:03;;;;;;;9.13;6.30;;;;;;;;;;5047953;28;20216;-78
2022/12/07 10:37:13;;;;;;;9.13;6.77;;;;;;;;;;5048491;28;20176;-78
2022/12/07 10:40:25;;;;;;;9.83;6.43;;;;;;;;;;5026074;28;20181;-78
2022/12/07 10:43:29;;;;;;;10.13;7.40;;;;;;;;;;5033808;28;20176;-77
2022/12/07 10:47:06;;;;;;;9.67;7.23;;;;;;;;;;5032267;28;20192;-77
2022/12/07 10:50:41;;;;;;;9.40;6.53;;;;;;;;;;5034279;28;20185;-78
2022/12/07 10:54:10;;;;;;;8.30;6.63;;;;;;;;;;5034333;28;20209;-77
2022/12/07 10:57:22;;;;;;;9.20;6.43;;;;;;;;;;5036672;28;20184;-77
2022/12/07 11:00:58;;;;;;;11.50;7.30;;;;;;;;;;5044907;28;20193;-77
2022/12/07 11:04:30;;;;;;;10.60;6.77;;;;;;;;;;5025244;28;20196;-77
2022/12/07 11:07:56;;;;;;;10.00;6.27;;;;;;;;;;5026781;28;20181;-77
2022/12/07 11:11:16;;;;;;;7.90;6.43;;;;;;;;;;5049291;28;20683;-77
2022/12/07 11:14:20;;;;;;;8.17;6.10;;;;;;;;;;5050590;28;20224;-78
2022/12/07 11:17:36;;;;;;;9.47;6.83;;;;;;;;;;5036911;28;20531;-77
2022/12/07 11:21:09;;;;;;;9.23;6.17;;;;;;;;;;5048041;28;20177;-77
2022/12/07 11:24:24;;;;;;;8.37;6.03;;;;;;;;;;5036811;28;20177;-77
2022/12/07 11:27:43;;;;;;;8.80;5.80;;;;;;;;;;5036080;28;20184;-77
2022/12/07 11:31:01;;;;;;;7.23;5.33;;;;;;;;;;5036125;28;20221;-77
2022/12/07 11:34:41;;;;;;;7.60;5.47;;;;;;;;;;5047634;28;20212;-76
2022/12/07 11:37:46;;;;;;;8.70;5.67;;;;;;;;;;5036855;28;20189;-77
2022/12/07 11:40:56;;;;;;;8.50;6.00;;;;;;;;;;5036536;28;20614;-77
2022/12/07 11:44:19;;;;;;;8.17;5.63;;;;;;;;;;5036775;28;20193;-77
2022/12/07 11:47:54;;;;;;;7.60;5.03;;;;;;;;;;5047704;28;20181;-77
2022/12/07 11:51:01;;;;;;;6.90;4.90;;;;;;;;;;5047214;28;20217;-77
2022/12/07 11:54:11;;;;;;;6.13;4.90;;;;;;;;;;5035825;28;20221;-77
2022/12/07 11:57:37;;;;;;;9.30;4.93;;;;;;;;;;5036746;28;20181;-77
2022/12/07 12:00:42;;;;;;;9.23;5.70;;;;;;;;;;5047053;28;20181;-77
2022/12/07 12:03:49;;;;;;;7.33;4.83;;;;;;;;;;5037602;28;20173;-77
2022/12/07 12:06:53;;;;;;;7.63;4.93;;;;;;;;;;5038527;28;20189;-78
2022/12/07 12:10:02;;;;;;;7.57;5.50;;;;;;;;;;5047407;28;20180;-77
2022/12/07 12:13:12;;;;;;;7.73;5.03;;;;;;;;;;5035348;28;20220;-78
2022/12/07 12:16:35;;;;;;;6.33;4.50;;;;;;;;;;5047091;28;20188;-77
2022/12/07 12:20:00;;;;;;;9.93;5.70;;;;;;;;;;5035561;28;20185;-77
2022/12/07 12:23:15;;;;;;;8.37;5.77;;;;;;;;;;5024081;28;20177;-77
2022/12/07 12:26:22;;;;;;;8.07;5.57;;;;;;;;;;5024403;28;20628;-77
2022/12/07 12:29:37;;;;;;;7.43;5.47;;;;;;;;;;5046787;28;20181;-77
2022/12/07 12:32:45;;;;;;;8.80;5.53;;;;;;;;;;5035762;28;20217;-77
2022/12/07 12:36:17;;;;;;;8.70;5.80;;;;;;;;;;5035280;28;20181;-77
2022/12/07 12:39:22;;;;;;;8.40;5.53;;;;;;;;;;5047663;28;20193;-77
2022/12/07 12:42:44;;;;;;;7.83;5.50;;;;;;;;;;5047174;28;20216;-78
2022/12/07 12:45:48;;;;;;;8.73;5.60;;;;;;;;;;5047307;28;20181;-77
2022/12/07 12:49:15;;;;;;;7.83;6.10;;;;;;;;;;5046405;28;20187;-77
2022/12/07 12:52:38;;;;;;;9.80;5.97;;;;;;;;;;5035095;28;20691;-78
2022/12/07 12:55:42;;;;;;;7.37;5.40;;;;;;;;;;5034618;28;20628;-77
2022/12/07 12:58:48;;;;;;;7.60;5.60;;;;;;;;;;5023414;28;20181;-77
2022/12/07 13:02:07;;;;;;;15.20;6.87;;;;;;;;;;5036483;28;20216;-78
2022/12/07 13:05:11;;;;;;;9.53;7.40;;;;;;;;;;5047490;28;20181;-78
2022/12/07 13:08:24;;;;;;;27.20;15.50;;;;;;;;;;5036611;28;20172;-77
2022/12/07 13:11:39;;;;;;;27.57;17.93;;;;;;;;;;5048333;28;20583;-77
2022/12/07 13:14:53;;;;;;;36.57;23.97;;;;;;;;;;5036727;28;20565;-77
2022/12/07 13:18:00;;;;;;;25.93;17.83;;;;;;;;;;5036882;28;20181;-78
2022/12/07 13:21:07;;;;;;;13.93;8.23;;;;;;;;;;5023420;28;20217;-77
2022/12/07 13:24:13;;;;;;;19.90;12.73;;;;;;;;;;5034423;28;20181;-77
2022/12/07 13:27:17;;;;;;;11.10;8.10;;;;;;;;;;5038366;28;20185;-78
2022/12/07 13:30:22;;;;;;;9.40;6.60;;;;;;;;;;5027675;28;20177;-78
2022/12/07 13:33:29;;;;;;;10.10;6.63;;;;;;;;;;5038112;28;20208;-78
2022/12/07 13:36:37;;;;;;;8.43;6.00;;;;;;;;;;5039189;28;20185;-78
2022/12/07 13:39:47;;;;;;;10.27;6.97;;;;;;;;;;5038316;28;20181;-78
2022/12/07 13:43:03;;;;;;;11.20;7.43;;;;;;;;;;5037869;28;20177;-78
2022/12/07 13:46:09;;;;;;;11.50;7.57;;;;;;;;;;5048843;28;20225;-77
2022/12/07 13:49:37;;;;;;;45.83;27.60;;;;;;;;;;5038384;28;20177;-78
2022/12/07 13:52:45;;;;;;;46.60;28.30;;;;;;;;;;5022205;28;20224;-77
2022/12/07 13:55:49;;;;;;;21.60;13.37;;;;;;;;;;5034016;28;20177;-77
2022/12/07 13:58:54;;;;;;;9.60;7.03;;;;;;;;;;5034966;28;20185;-78
2022/12/07 14:01:58;;;;;;;28.43;22.73;;;;;;;;;;5034156;28;20216;-78
2022/12/07 14:05:12;;;;;;;17.23;14.00;;;;;;;;;;5045048;28;20177;-78
2022/12/07 14:08:16;;;;;;;9.10;6.60;;;;;;;;;;5034136;28;20185;-78
2022/12/07 14:11:20;;;;;;;10.77;6.70;;;;;;;;;;5045164;28;20224;-77
2022/12/07 14:14:28;;;;;;;8.93;6.10;;;;;;;;;;5034391;28;20695;-78
2022/12/07 14:17:32;;;;;;;10.30;6.47;;;;;;;;;;5057866;28;20177;-79
2022/12/07 14:20:39;;;;;;;10.97;7.37;;;;;;;;;;5049418;28;20181;-79
2022/12/07 14:23:44;;;;;;;9.20;6.63;;;;;;;;;;5059646;28;20196;-79
2022/12/07 14:26:50;;;;;;;10.63;6.37;;;;;;;;;;5047345;28;20189;-79
2022/12/07 14:29:54;;;;;;;11.63;7.03;;;;;;;;;;5047878;28;20616;-79
2022/12/07 14:33:01;;;;;;;10.20;6.70;;;;;;;;;;5037774;28;20185;-79
2022/12/07 14:36:06;;;;;;;36.13;21.43;;;;;;;;;;5046903;28;20173;-79
2022/12/07 14:39:10;;;;;;;33.73;20.63;;;;;;;;;;5059910;28;20181;-79
2022/12/07 14:42:15;;;;;;;52.97;31.03;;;;;;;;;;5035003;28;20216;-78
2022/12/07 14:45:21;;;;;;;50.30;30.07;;;;;;;;;;5047453;28;20176;-79
2022/12/07 14:48:26;;;;;;;18.17;12.13;;;;;;;;;;5035490;28;20181;-79
2022/12/07 14:51:31;;;;;;;12.00;7.57;;;;;;;;;;5034816;28;20212;-79
2022/12/07 14:54:36;;;;;;;11.50;6.60;;;;;;;;;;5046619;28;20699;-79
2022/12/07 14:57:40;;;;;;;10.23;6.50;;;;;;;;;;5046887;28;20181;-79
2022/12/07 15:00:45;;;;;;;8.67;6.03;;;;;;;;;;5048557;28;20220;-79
2022/12/07 15:03:49;;;;;;;9.77;6.40;;;;;;;;;;5059973;28;20180;-79
2022/12/07 15:06:56;;;;;;;10.97;6.60;;;;;;;;;;5057879;28;20182;-79
2022/12/07 15:10:00;;;;;;;10.17;6.33;;;;;;;;;;5046379;28;20181;-79
2022/12/07 15:16:28;;;;;;;14.80;9.33;;;;;;;;;;5046204;28;20181;-79
2022/12/07 15:19:32;;;;;;;28.43;16.63;;;;;;;;;;5044829;28;20632;-78
2022/12/07 15:22:37;;;;;;;44.97;28.37;;;;;;;;;;5043576;28;20724;-78
2022/12/07 15:25:42;;;;;;;28.60;22.47;;;;;;;;;;5054947;28;20181;-79
2022/12/07 15:28:46;;;;;;;12.53;10.57;;;;;;;;;;5033450;28;20173;-79
2022/12/07 15:31:52;;;;;;;9.97;7.33;;;;;;;;;;5055466;28;20216;-78
2022/12/07 15:34:56;;;;;;;8.97;6.67;;;;;;;;;;5054909;28;20671;-79
2022/12/07 15:38:01;;;;;;;9.33;5.87;;;;;;;;;;5053026;28;20189;-78
2022/12/07 15:41:05;;;;;;;10.13;5.80;;;;;;;;;;5045236;28;20212;-79
2022/12/07 15:47:38;;;;;;;10.23;6.27;;;;;;;;;;5047492;28;20184;-78
2022/12/07 15:50:42;;;;;;;13.47;8.77;;;;;;;;;;5046547;28;20185;-78
2022/12/07 15:53:47;;;;;;;10.93;6.40;;;;;;;;;;5044085;28;20204;-78
2022/12/07 15:56:51;;;;;;;9.93;5.73;;;;;;;;;;5048339;28;20185;-79
2022/12/07 15:59:55;;;;;;;10.10;5.43;;;;;;;;;;5046718;28;20180;-79
2022/12/07 16:02:59;;;;;;;11.70;5.73;;;;;;;;;;5041893;28;20532;-78
2022/12/07 16:06:04;;;;;;;9.37;4.93;;;;;;;;;;5025763;28;20537;-78
2022/12/07 16:09:08;;;;;;;9.30;5.80;;;;;;;;;;5039300;28;20193;-78
2022/12/07 16:12:13;;;;;;;8.30;5.57;;;;;;;;;;5028769;28;20220;-78
2022/12/07 16:15:18;;;;;;;9.23;5.80;;;;;;;;;;5052932;28;20582;-78
2022/12/07 16:18:22;;;;;;;7.97;5.33;;;;;;;;;;5033337;28;20208;-78
2022/12/07 16:21:26;;;;;;;11.90;6.00;;;;;;;;;;5021851;28;20224;-78
2022/12/07 16:24:31;;;;;;;8.30;5.23;;;;;;;;;;5024543;28;20508;-79
2022/12/07 16:27:35;;;;;;;7.87;5.07;;;;;;;;;;5013615;28;20197;-79
2022/12/07 16:30:40;;;;;;;9.40;5.17;;;;;;;;;;5009985;28;20633;-78
2022/12/07 16:33:45;;;;;;;10.20;5.13;;;;;;;;;;5039372;28;20559;-78
2022/12/07 16:36:49;;;;;;;8.17;4.90;;;;;;;;;;5025967;28;20185;-78
2022/12/07 16:39:53;;;;;;;8.43;5.50;;;;;;;;;;5025913;28;20540;-78
2022/12/07 16:42:57;;;;;;;7.17;4.67;;;;;;;;;;5036999;28;20172;-78
2022/12/07 16:46:03;;;;;;;8.80;5.73;;;;;;;;;;5036383;28;20197;-77
2022/12/07 16:49:16;;;;;;;13.37;6.80;;;;;;;;;;5025438;28;20180;-78
2022/12/07 16:52:21;;;;;;;8.97;6.03;;;;;;;;;;5024542;28;20216;-78
2022/12/07 16:55:25;;;;;;;9.17;6.07;;;;;;;;;;5026151;28;20212;-78
2022/12/07 16:58:31;;;;;;;9.07;6.40;;;;;;;;;;5034629;28;20552;-78
2022/12/07 17:01:35;;;;;;;12.03;7.10;;;;;;;;;;5028090;28;20698;-78
2022/12/07 17:04:42;;;;;;;10.57;7.20;;;;;;;;;;5014626;28;20624;-78
2022/12/07 17:07:46;;;;;;;11.10;7.23;;;;;;;;;;5038044;28;20204;-78
2022/12/07 17:10:50;;;;;;;13.50;7.93;;;;;;;;;;5036008;28;20216;-78
2022/12/07 17:17:17;;;;;;;34.17;21.73;;;;;;;;;;5037550;28;20185;-78
2022/12/07 17:20:23;;;;;;;19.13;12.70;;;;;;;;;;5025798;28;20177;-78
2022/12/07 17:23:28;;;;;;;14.13;8.63;;;;;;;;;;5036073;28;20513;-78
2022/12/07 17:26:32;;;;;;;13.73;8.40;;;;;;;;;;5037011;28;20664;-78
2022/12/07 17:29:36;;;;;;;14.33;8.10;;;;;;;;;;5025420;28;20193;-78
2022/12/07 17:32:40;;;;;;;23.23;12.00;;;;;;;;;;5033540;28;20690;-77
2022/12/07 17:35:45;;;;;;;11.03;7.77;;;;;;;;;;5033436;28;20212;-76
2022/12/07 17:38:50;;;;;;;22.53;13.13;;;;;;;;;;5022019;28;20358;-76
2022/12/07 17:45:17;;;;;;;12.33;7.40;;;;;;;;;;5022396;28;20177;-77
2022/12/07 17:48:21;;;;;;;12.07;7.03;;;;;;;;;;5033738;28;20181;-77
2022/12/07 17:54:48;;;;;;;10.17;6.23;;;;;;;;;;5033886;28;20209;-76
2022/12/07 17:57:52;;;;;;;10.57;6.57;;;;;;;;;;5033813;28;20200;-77
2022/12/07 18:00:56;;;;;;;7.93;5.80;;;;;;;;;;5021694;28;20212;-77
2022/12/07 18:04:01;;;;;;;8.43;5.83;;;;;;;;;;5010160;28;20204;-77
2022/12/07 18:07:05;;;;;;;8.47;6.23;;;;;;;;;;5021773;28;20177;-77
2022/12/07 18:10:10;;;;;;;9.63;6.20;;;;;;;;;;5032680;28;20180;-76
2022/12/07 18:16:37;;;;;;;9.90;7.03;;;;;;;;;;5032929;28;20173;-76
2022/12/07 18:19:41;;;;;;;12.90;6.83;;;;;;;;;;5025054;28;20200;-78
2022/12/07 18:22:45;;;;;;;11.73;6.87;;;;;;;;;;5039665;28;20213;-78
2022/12/07 18:25:50;;;;;;;13.03;7.40;;;;;;;;;;5036791;28;20169;-78
2022/12/07 18:28:54;;;;;;;18.00;10.90;;;;;;;;;;5014728;28;20173;-78
2022/12/07 18:31:59;;;;;;;27.33;14.37;;;;;;;;;;5021426;28;20224;-78
2022/12/07 18:35:03;;;;;;;43.67;24.37;;;;;;;;;;5011233;28;20213;-78
2022/12/07 18:38:08;;;;;;;21.73;13.20;;;;;;;;;;5033972;28;20189;-77
2022/12/07 18:41:13;;;;;;;17.73;10.60;;;;;;;;;;5033279;28;20216;-78
2022/12/07 18:44:18;;;;;;;14.10;8.27;;;;;;;;;;5034170;28;20620;-78
2022/12/07 18:47:22;;;;;;;10.43;7.30;;;;;;;;;;5033402;28;20631;-77
2022/12/07 18:50:26;;;;;;;10.70;6.90;;;;;;;;;;5033403;28;20189;-77